PGT54NQ LTFJ-LCLK
Flight info
| Callsign | PGT54NQ |
|---|---|
| Flight time | 1h 12m |
| Altitude | 37000 |
| Route | ROXUK UN617 IRGAK UM855 LEMDA UA16 TOMBI M855 DASNI M601 BONEK |
| Aircraft | B738/M-SDE2E3FGHIRWXY/LB1 |
Departure
| Time | 2026-05-01 13:51 |
|---|---|
| Airport | Istanbul Sabiha Gökçen International Airport (LTFJ) |
Arrival
| Time | 2026-05-01 15:03 |
|---|---|
| Airport | Larnaca International Airport (LCLK) |
| Time | Latitude | Longitude | Altitude | Speed | Heading |
|---|---|---|---|---|---|
| 2026-05-01 13:51 | 40.87933 | 29.47172 | 8215 ft | 293 kts | 157° |
| 2026-05-01 13:51 | 40.85989 | 29.48156 | 8971 ft | 312 kts | 157° |
| 2026-05-01 13:51 | 40.83895 | 29.49283 | 9719 ft | 336 kts | 156° |
| 2026-05-01 13:51 | 40.81667 | 29.50528 | 10464 ft | 358 kts | 156° |
| 2026-05-01 13:52 | 40.79444 | 29.52156 | 11219 ft | 376 kts | 146° |
| 2026-05-01 13:52 | 40.77341 | 29.54382 | 12000 ft | 394 kts | 139° |
| 2026-05-01 13:52 | 40.75340 | 29.56942 | 12745 ft | 408 kts | 135° |
| 2026-05-01 13:52 | 40.73399 | 29.59715 | 13481 ft | 421 kts | 133° |
| 2026-05-01 13:53 | 40.71474 | 29.62665 | 14231 ft | 430 kts | 133° |
| 2026-05-01 13:53 | 40.66642 | 29.67294 | 15749 ft | 433 kts | 159° |
| 2026-05-01 13:53 | 40.63792 | 29.68451 | 16505 ft | 432 kts | 171° |
| 2026-05-01 13:54 | 40.60803 | 29.69065 | 17282 ft | 431 kts | 177° |
| 2026-05-01 13:54 | 40.57840 | 29.69339 | 18131 ft | 428 kts | 181° |
| 2026-05-01 13:54 | 40.54859 | 29.69409 | 19002 ft | 424 kts | 184° |
| 2026-05-01 13:54 | 40.51914 | 29.69354 | 19863 ft | 420 kts | 186° |
| 2026-05-01 13:55 | 40.49011 | 29.69224 | 20714 ft | 416 kts | 187° |
| 2026-05-01 13:55 | 40.46153 | 29.69061 | 21558 ft | 412 kts | 187° |
| 2026-05-01 13:55 | 40.43284 | 29.68919 | 22412 ft | 408 kts | 187° |
| 2026-05-01 13:55 | 40.40478 | 29.68801 | 23257 ft | 403 kts | 187° |
| 2026-05-01 13:56 | 40.37667 | 29.68702 | 24113 ft | 398 kts | 187° |
| 2026-05-01 13:56 | 40.34936 | 29.68623 | 24956 ft | 392 kts | 186° |
| 2026-05-01 13:56 | 40.32221 | 29.68562 | 25806 ft | 386 kts | 187° |
| 2026-05-01 13:56 | 40.29562 | 29.68522 | 26639 ft | 379 kts | 187° |
| 2026-05-01 13:57 | 40.26938 | 29.68497 | 27310 ft | 379 kts | 186° |
| 2026-05-01 13:57 | 40.25178 | 29.68485 | 27721 ft | 380 kts | 186° |
| 2026-05-01 13:57 | 40.21650 | 29.68513 | 28532 ft | 381 kts | 185° |
| 2026-05-01 13:57 | 40.18986 | 29.68632 | 29140 ft | 382 kts | 184° |
| 2026-05-01 13:58 | 40.16351 | 29.68806 | 29737 ft | 381 kts | 184° |
| 2026-05-01 13:58 | 40.13730 | 29.69010 | 30332 ft | 380 kts | 183° |
| 2026-05-01 13:58 | 40.11090 | 29.69247 | 30933 ft | 378 kts | 183° |
| 2026-05-01 13:58 | 40.08458 | 29.69494 | 31534 ft | 376 kts | 183° |
| 2026-05-01 13:59 | 40.05882 | 29.69741 | 32127 ft | 373 kts | 183° |
| 2026-05-01 13:59 | 40.03298 | 29.70007 | 32726 ft | 369 kts | 183° |
| 2026-05-01 13:59 | 40.00769 | 29.70269 | 33317 ft | 366 kts | 183° |
| 2026-05-01 13:59 | 39.98225 | 29.70544 | 33918 ft | 361 kts | 184° |
| 2026-05-01 14:00 | 39.95754 | 29.70830 | 34508 ft | 357 kts | 183° |
| 2026-05-01 14:00 | 39.93547 | 29.71186 | 35044 ft | 356 kts | 178° |
| 2026-05-01 14:00 | 39.91133 | 29.71972 | 35640 ft | 357 kts | 172° |
| 2026-05-01 14:00 | 39.88944 | 29.72896 | 35849 ft | 365 kts | 169° |
| 2026-05-01 14:01 | 39.86531 | 29.74042 | 36007 ft | 378 kts | 168° |
| 2026-05-01 14:01 | 39.84062 | 29.75274 | 36146 ft | 391 kts | 167° |
| 2026-05-01 14:01 | 39.81468 | 29.76614 | 36281 ft | 403 kts | 166° |
| 2026-05-01 14:01 | 39.78816 | 29.78003 | 36414 ft | 415 kts | 166° |
| 2026-05-01 14:02 | 39.76130 | 29.79414 | 36544 ft | 426 kts | 165° |
| 2026-05-01 14:02 | 39.73344 | 29.80901 | 36675 ft | 436 kts | 165° |
| 2026-05-01 14:02 | 39.70496 | 29.82430 | 36805 ft | 445 kts | 165° |
| 2026-05-01 14:02 | 39.67646 | 29.83964 | 36932 ft | 450 kts | 164° |
| 2026-05-01 14:03 | 39.64740 | 29.85534 | 37044 ft | 454 kts | 164° |
| 2026-05-01 14:03 | 39.61804 | 29.87149 | 37097 ft | 457 kts | 163° |
| 2026-05-01 14:03 | 39.55991 | 29.90392 | 37094 ft | 458 kts | 163° |
| 2026-05-01 14:04 | 39.50161 | 29.93671 | 37088 ft | 457 kts | 163° |
| 2026-05-01 14:04 | 39.45284 | 29.96420 | 37084 ft | 457 kts | 163° |
| 2026-05-01 14:05 | 39.38507 | 30.00253 | 37079 ft | 457 kts | 163° |
| 2026-05-01 14:05 | 39.32671 | 30.03548 | 37074 ft | 457 kts | 163° |
| 2026-05-01 14:06 | 39.26846 | 30.06829 | 37070 ft | 457 kts | 163° |
| 2026-05-01 14:06 | 39.21041 | 30.10097 | 37065 ft | 457 kts | 163° |
| 2026-05-01 14:07 | 39.15211 | 30.13378 | 37061 ft | 457 kts | 163° |
| 2026-05-01 14:08 | 39.06470 | 30.18305 | 37054 ft | 458 kts | 163° |
| 2026-05-01 14:08 | 39.00643 | 30.21587 | 37050 ft | 459 kts | 163° |
| 2026-05-01 14:09 | 38.94786 | 30.24885 | 37046 ft | 460 kts | 163° |
| 2026-05-01 14:09 | 38.88932 | 30.28185 | 37042 ft | 461 kts | 163° |
| 2026-05-01 14:10 | 38.83066 | 30.31499 | 37038 ft | 462 kts | 163° |
| 2026-05-01 14:10 | 38.77181 | 30.34818 | 37033 ft | 462 kts | 163° |
| 2026-05-01 14:11 | 38.71286 | 30.38101 | 37029 ft | 463 kts | 164° |
| 2026-05-01 14:11 | 38.62397 | 30.42956 | 37003 ft | 463 kts | 164° |
| 2026-05-01 14:12 | 38.56470 | 30.46162 | 36997 ft | 463 kts | 164° |
| 2026-05-01 14:12 | 38.50513 | 30.49390 | 36992 ft | 464 kts | 164° |
| 2026-05-01 14:13 | 38.45586 | 30.52109 | 36988 ft | 465 kts | 163° |
| 2026-05-01 14:13 | 38.38650 | 30.55948 | 36974 ft | 465 kts | 164° |
| 2026-05-01 14:14 | 38.32680 | 30.59128 | 36973 ft | 461 kts | 168° |
| 2026-05-01 14:14 | 38.26550 | 30.61119 | 36980 ft | 453 kts | 176° |
| 2026-05-01 14:15 | 38.20344 | 30.62389 | 36972 ft | 450 kts | 180° |
| 2026-05-01 14:15 | 38.14169 | 30.63380 | 36966 ft | 449 kts | 181° |
| 2026-05-01 14:16 | 38.07956 | 30.64297 | 36964 ft | 449 kts | 181° |
| 2026-05-01 14:16 | 38.01714 | 30.65206 | 36964 ft | 449 kts | 181° |
| 2026-05-01 14:17 | 37.95499 | 30.66100 | 36962 ft | 450 kts | 182° |
| 2026-05-01 14:17 | 37.89312 | 30.66940 | 36962 ft | 451 kts | 182° |
| 2026-05-01 14:18 | 37.83060 | 30.67769 | 36962 ft | 451 kts | 182° |
| 2026-05-01 14:18 | 37.77842 | 30.68457 | 36962 ft | 452 kts | 182° |
| 2026-05-01 14:19 | 37.70580 | 30.69376 | 36956 ft | 452 kts | 182° |
| 2026-05-01 14:19 | 37.64281 | 30.70110 | 36954 ft | 452 kts | 182° |
| 2026-05-01 14:20 | 37.54898 | 30.71373 | 36947 ft | 454 kts | 181° |
| 2026-05-01 14:21 | 37.49683 | 30.72148 | 36943 ft | 454 kts | 181° |
| 2026-05-01 14:21 | 37.43414 | 30.73033 | 36938 ft | 454 kts | 182° |
| 2026-05-01 14:22 | 37.32945 | 30.74447 | 36928 ft | 454 kts | 182° |
| 2026-05-01 14:22 | 37.27702 | 30.75147 | 36923 ft | 455 kts | 182° |
| 2026-05-01 14:23 | 37.21383 | 30.75957 | 36917 ft | 454 kts | 183° |
| 2026-05-01 14:23 | 37.15085 | 30.76702 | 36913 ft | 454 kts | 183° |
| 2026-05-01 14:24 | 37.08823 | 30.77424 | 36909 ft | 455 kts | 183° |
| 2026-05-01 14:24 | 37.02518 | 30.78153 | 36907 ft | 455 kts | 183° |
| 2026-05-01 14:25 | 36.96178 | 30.78890 | 36907 ft | 455 kts | 184° |
| 2026-05-01 14:25 | 36.89897 | 30.79350 | 36905 ft | 453 kts | 186° |
| 2026-05-01 14:26 | 36.80442 | 30.79759 | 36905 ft | 453 kts | 187° |
| 2026-05-01 14:27 | 36.74151 | 30.79983 | 36906 ft | 453 kts | 187° |
| 2026-05-01 14:27 | 36.67854 | 30.80209 | 36905 ft | 454 kts | 187° |
| 2026-05-01 14:28 | 36.58386 | 30.80552 | 36907 ft | 455 kts | 187° |
| 2026-05-01 14:28 | 36.52040 | 30.80792 | 36908 ft | 455 kts | 187° |
| 2026-05-01 14:29 | 36.45693 | 30.81034 | 36909 ft | 456 kts | 187° |
| 2026-05-01 14:30 | 36.33023 | 30.81535 | 36912 ft | 456 kts | 187° |
| 2026-05-01 14:31 | 36.23525 | 30.81925 | 36915 ft | 456 kts | 187° |
| 2026-05-01 14:31 | 36.17179 | 30.82141 | 36915 ft | 456 kts | 188° |
| 2026-05-01 14:32 | 36.10844 | 30.82306 | 36917 ft | 456 kts | 188° |
| 2026-05-01 14:32 | 36.04495 | 30.82580 | 36918 ft | 458 kts | 186° |
| 2026-05-01 14:33 | 35.98107 | 30.82956 | 36919 ft | 459 kts | 186° |
| 2026-05-01 14:33 | 35.91687 | 30.83413 | 36921 ft | 464 kts | 182° |
| 2026-05-01 14:33 | 35.88520 | 30.84386 | 36928 ft | 483 kts | 166° |
| 2026-05-01 14:34 | 35.85550 | 30.86406 | 36931 ft | 499 kts | 150° |
| 2026-05-01 14:34 | 35.82966 | 30.89369 | 36935 ft | 509 kts | 136° |
| 2026-05-01 14:34 | 35.80771 | 30.92837 | 36941 ft | 514 kts | 129° |
| 2026-05-01 14:35 | 35.76971 | 31.00331 | 36930 ft | 518 kts | 122° |
| 2026-05-01 14:35 | 35.73519 | 31.08071 | 36925 ft | 518 kts | 121° |
| 2026-05-01 14:36 | 35.70139 | 31.15929 | 36925 ft | 518 kts | 120° |
| 2026-05-01 14:36 | 35.66788 | 31.23776 | 36926 ft | 519 kts | 120° |
| 2026-05-01 14:37 | 35.63448 | 31.31609 | 36927 ft | 519 kts | 120° |
| 2026-05-01 14:37 | 35.60061 | 31.39433 | 36928 ft | 519 kts | 121° |
| 2026-05-01 14:38 | 35.56626 | 31.47244 | 36928 ft | 519 kts | 121° |
| 2026-05-01 14:38 | 35.53188 | 31.55023 | 36929 ft | 519 kts | 121° |
| 2026-05-01 14:39 | 35.49747 | 31.62799 | 36930 ft | 519 kts | 121° |
| 2026-05-01 14:39 | 35.46302 | 31.70578 | 36929 ft | 519 kts | 121° |
| 2026-05-01 14:40 | 35.42860 | 31.78343 | 36930 ft | 519 kts | 121° |
| 2026-05-01 14:40 | 35.39419 | 31.86104 | 36924 ft | 519 kts | 121° |
| 2026-05-01 14:40 | 35.37672 | 31.90039 | 36466 ft | 526 kts | 121° |
| 2026-05-01 14:41 | 35.35929 | 31.93950 | 35892 ft | 528 kts | 121° |
| 2026-05-01 14:41 | 35.34151 | 31.97922 | 35291 ft | 527 kts | 121° |
| 2026-05-01 14:41 | 35.32519 | 32.01906 | 34701 ft | 526 kts | 115° |
| 2026-05-01 14:41 | 35.31096 | 32.06041 | 34107 ft | 524 kts | 112° |
| 2026-05-01 14:42 | 35.29824 | 32.10179 | 33519 ft | 523 kts | 110° |
| 2026-05-01 14:42 | 35.28608 | 32.14393 | 32918 ft | 521 kts | 109° |
| 2026-05-01 14:42 | 35.27453 | 32.18546 | 32324 ft | 520 kts | 109° |
| 2026-05-01 14:42 | 35.26301 | 32.22773 | 31719 ft | 518 kts | 108° |
| 2026-05-01 14:43 | 35.25187 | 32.26914 | 31125 ft | 517 kts | 108° |
| 2026-05-01 14:43 | 35.24066 | 32.31114 | 30522 ft | 516 kts | 108° |
| 2026-05-01 14:43 | 35.22967 | 32.35255 | 29925 ft | 514 kts | 108° |
| 2026-05-01 14:43 | 35.21865 | 32.39426 | 29323 ft | 513 kts | 108° |
| 2026-05-01 14:44 | 35.20770 | 32.43588 | 28721 ft | 512 kts | 108° |
| 2026-05-01 14:44 | 35.18562 | 32.51849 | 27521 ft | 511 kts | 109° |
| 2026-05-01 14:44 | 35.17440 | 32.55980 | 26919 ft | 511 kts | 109° |
| 2026-05-01 14:45 | 35.16328 | 32.60067 | 26323 ft | 511 kts | 109° |
| 2026-05-01 14:45 | 35.14082 | 32.68318 | 25118 ft | 510 kts | 109° |
| 2026-05-01 14:45 | 35.12961 | 32.72445 | 24515 ft | 510 kts | 109° |
| 2026-05-01 14:46 | 35.11852 | 32.76531 | 23917 ft | 506 kts | 109° |
| 2026-05-01 14:46 | 35.09783 | 32.84198 | 22713 ft | 447 kts | 109° |
| 2026-05-01 14:46 | 35.08836 | 32.87716 | 22110 ft | 426 kts | 109° |
| 2026-05-01 14:47 | 35.07921 | 32.91050 | 21510 ft | 409 kts | 110° |
| 2026-05-01 14:47 | 35.07027 | 32.94274 | 20907 ft | 394 kts | 110° |
| 2026-05-01 14:47 | 35.06157 | 32.97401 | 20303 ft | 382 kts | 110° |
| 2026-05-01 14:48 | 35.04495 | 33.03319 | 19097 ft | 352 kts | 110° |
| 2026-05-01 14:48 | 35.03707 | 33.06062 | 18489 ft | 334 kts | 111° |
| 2026-05-01 14:48 | 35.02208 | 33.11249 | 17283 ft | 317 kts | 111° |
| 2026-05-01 14:49 | 35.00758 | 33.16263 | 16074 ft | 307 kts | 111° |
| 2026-05-01 14:49 | 34.99351 | 33.21099 | 14875 ft | 300 kts | 111° |
| 2026-05-01 14:50 | 34.98426 | 33.24265 | 14075 ft | 295 kts | 111° |
| 2026-05-01 14:50 | 34.96638 | 33.30447 | 12478 ft | 287 kts | 111° |
| 2026-05-01 14:51 | 34.96049 | 33.32467 | 11945 ft | 284 kts | 110° |
| 2026-05-01 14:51 | 34.94753 | 33.36974 | 10739 ft | 277 kts | 110° |
| 2026-05-01 14:52 | 34.93502 | 33.41366 | 9412 ft | 272 kts | 110° |
| 2026-05-01 14:52 | 34.92884 | 33.43525 | 8734 ft | 265 kts | 110° |
| 2026-05-01 14:52 | 34.91691 | 33.47656 | 7378 ft | 252 kts | 110° |
| 2026-05-01 14:53 | 34.91110 | 33.49640 | 6705 ft | 247 kts | 110° |
| 2026-05-01 14:53 | 34.90530 | 33.51587 | 6035 ft | 244 kts | 111° |
| 2026-05-01 14:53 | 34.89941 | 33.53543 | 5392 ft | 247 kts | 111° |
| 2026-05-01 14:53 | 34.89360 | 33.55475 | 5127 ft | 240 kts | 111° |
| 2026-05-01 14:54 | 34.88802 | 33.57350 | 4875 ft | 235 kts | 111° |
| 2026-05-01 14:54 | 34.88248 | 33.59226 | 4652 ft | 232 kts | 110° |
| 2026-05-01 14:54 | 34.87717 | 33.61078 | 4475 ft | 230 kts | 110° |
| 2026-05-01 14:54 | 34.87199 | 33.62903 | 4301 ft | 230 kts | 110° |
| 2026-05-01 14:55 | 34.86823 | 33.64785 | 4109 ft | 232 kts | 93° |
| 2026-05-01 14:55 | 34.87089 | 33.66719 | 3966 ft | 231 kts | 73° |
| 2026-05-01 14:55 | 34.87633 | 33.68532 | 3891 ft | 227 kts | 68° |
| 2026-05-01 14:55 | 34.88254 | 33.70323 | 3774 ft | 229 kts | 66° |
| 2026-05-01 14:56 | 34.88892 | 33.72102 | 3651 ft | 229 kts | 66° |
| 2026-05-01 14:56 | 34.89530 | 33.73863 | 3523 ft | 226 kts | 66° |
| 2026-05-01 14:56 | 34.90155 | 33.75586 | 3396 ft | 223 kts | 66° |
| 2026-05-01 14:56 | 34.90784 | 33.77319 | 3265 ft | 218 kts | 66° |
| 2026-05-01 14:57 | 34.91385 | 33.78974 | 3130 ft | 211 kts | 66° |
| 2026-05-01 14:57 | 34.92567 | 33.82137 | 2861 ft | 202 kts | 60° |
| 2026-05-01 14:57 | 34.93574 | 33.83295 | 2706 ft | 199 kts | 26° |
| 2026-05-01 14:58 | 34.94913 | 33.83568 | 2587 ft | 196 kts | 352° |
| 2026-05-01 14:58 | 34.96173 | 33.82988 | 2507 ft | 193 kts | 328° |
| 2026-05-01 14:58 | 34.97218 | 33.82026 | 2464 ft | 190 kts | 313° |
| 2026-05-01 14:58 | 34.98008 | 33.80759 | 2412 ft | 186 kts | 297° |
| 2026-05-01 14:59 | 34.98388 | 33.79281 | 2350 ft | 182 kts | 275° |
| 2026-05-01 14:59 | 34.98338 | 33.77739 | 2322 ft | 181 kts | 261° |
| 2026-05-01 14:59 | 34.98002 | 33.76263 | 2275 ft | 180 kts | 248° |
| 2026-05-01 14:59 | 34.97404 | 33.74942 | 2229 ft | 180 kts | 236° |
| 2026-05-01 15:00 | 34.95752 | 33.72653 | 2063 ft | 181 kts | 226° |
| 2026-05-01 15:00 | 34.94885 | 33.71604 | 1966 ft | 158 kts | 225° |
| 2026-05-01 15:00 | 34.94155 | 33.70725 | 1749 ft | 144 kts | 225° |
| 2026-05-01 15:01 | 34.93454 | 33.69875 | 1535 ft | 139 kts | 225° |
| 2026-05-01 15:01 | 34.92777 | 33.69045 | 1317 ft | 137 kts | 225° |
| 2026-05-01 15:01 | 34.92110 | 33.68225 | 1070 ft | 134 kts | 225° |
| 2026-05-01 15:01 | 34.91462 | 33.67427 | 879 ft | 131 kts | 225° |
| 2026-05-01 15:02 | 34.90834 | 33.66653 | 702 ft | 129 kts | 225° |
| 2026-05-01 15:02 | 34.90620 | 33.66389 | 647 ft | 129 kts | 225° |
| 2026-05-01 15:02 | 34.89580 | 33.65106 | 428 ft | 128 kts | 225° |
| 2026-05-01 15:02 | 34.88951 | 33.64329 | 261 ft | 129 kts | 225° |
| 2026-05-01 15:03 | 34.88327 | 33.63559 | 102 ft | 127 kts | 225° |
| 2026-05-01 15:03 | 34.87722 | 33.62812 | 17 ft | 116 kts | 226° |
| 2026-05-01 15:03 | 34.87325 | 33.62322 | 17 ft | 51 kts | 225° |
| 2026-05-01 15:03 | 34.87115 | 33.62065 | 17 ft | 35 kts | 225° |
| 2026-05-01 15:04 | 34.87001 | 33.61867 | 17 ft | 24 kts | 246° |
| 2026-05-01 15:04 | 34.86960 | 33.61690 | 17 ft | 21 kts | 255° |
| 2026-05-01 15:04 | 34.86923 | 33.61522 | 17 ft | 20 kts | 255° |
| 2026-05-01 15:04 | 34.86896 | 33.61388 | 17 ft | 14 kts | 290° |
| 2026-05-01 15:05 | 34.86937 | 33.61329 | 17 ft | 9 kts | 315° |
| 2026-05-01 15:05 | 34.86984 | 33.61273 | 17 ft | 10 kts | 315° |
| 2026-05-01 15:05 | 34.87013 | 33.61215 | 17 ft | 4 kts | 238° |
| 2026-05-01 15:05 | 34.87004 | 33.61204 | 17 ft | 0 kts | 226° |
| 2026-05-01 15:06 | 34.86982 | 33.61175 | 17 ft | 4 kts | 228° |
| 2026-05-01 15:06 | 34.86972 | 33.61160 | 17 ft | 5 kts | 229° |
| 2026-05-01 15:06 | 34.86964 | 33.61149 | 17 ft | 3 kts | 229° |
| 2026-05-01 15:06 | 34.86962 | 33.61146 | 17 ft | 0 kts | 229° |